createdAt,value
2018-06-18T00:04:04.859Z,97564.95
2018-06-18T00:08:59.689Z,97563.28
2018-06-18T00:13:54.609Z,97571.70
2018-06-18T00:18:49.378Z,97560.14
2018-06-18T00:23:44.108Z,97556.11
2018-06-18T00:28:39.173Z,97554.48
2018-06-18T00:33:33.946Z,97566.03
2018-06-18T00:38:29.069Z,97566.31
2018-06-18T00:43:23.815Z,97573.44
2018-06-18T00:48:18.583Z,97567.67
2018-06-18T00:53:13.335Z,97567.16
2018-06-18T00:58:08.088Z,97563.30
2018-06-18T01:03:02.851Z,97558.09
2018-06-18T01:07:57.596Z,97556.56
2018-06-18T01:12:52.327Z,97556.17
2018-06-18T01:17:47.087Z,97553.36
2018-06-18T01:22:46.150Z,97559.50
2018-06-18T01:27:40.895Z,97561.97
2018-06-18T01:32:35.631Z,97563.97
2018-06-18T01:37:30.069Z,97556.02
2018-06-18T01:42:24.784Z,97549.70
2018-06-18T01:47:19.623Z,97552.20
2018-06-18T01:52:14.392Z,97559.66
2018-06-18T01:57:09.206Z,97551.55
2018-06-18T02:02:04.123Z,97564.38
2018-06-18T02:06:58.886Z,97562.65
2018-06-18T02:11:53.688Z,97556.85
2018-06-18T02:16:48.447Z,97562.06
2018-06-18T02:21:43.243Z,97562.28
2018-06-18T02:26:37.973Z,97564.16
2018-06-18T02:31:37.855Z,97566.05
2018-06-18T02:36:37.619Z,97570.42
2018-06-18T02:41:32.327Z,97572.39
2018-06-18T02:46:26.995Z,97586.03
2018-06-18T02:51:21.723Z,97578.16
2018-06-18T02:56:16.786Z,97580.08
2018-06-18T03:01:11.512Z,97581.03
2018-06-18T03:06:06.292Z,97579.77
2018-06-18T03:11:00.951Z,97587.16
2018-06-18T03:15:55.693Z,97588.06
2018-06-18T03:20:55.399Z,97584.00
2018-06-18T03:25:55.167Z,97580.45
2018-06-18T03:30:49.823Z,97594.97
2018-06-18T03:35:44.530Z,97599.33
2018-06-18T03:40:39.144Z,97611.78
2018-06-18T03:45:34.806Z,97614.58
2018-06-18T03:50:29.699Z,97606.72
2018-06-18T03:55:37.185Z,97618.16
2018-06-18T04:00:36.034Z,97619.27
2018-06-18T04:05:36.108Z,97620.11
2018-06-18T04:10:40.714Z,97611.86
2018-06-18T04:15:35.402Z,97608.52
2018-06-18T04:20:43.388Z,97625.80
2018-06-18T04:25:38.037Z,97630.92
2018-06-18T04:30:32.827Z,97635.02
2018-06-18T04:35:27.452Z,97629.53
2018-06-18T04:40:22.108Z,97631.97
2018-06-18T04:45:21.922Z,97634.22
2018-06-18T04:50:21.679Z,97630.16
2018-06-18T04:55:16.476Z,97628.80
2018-06-18T05:00:23.890Z,97633.12
2018-06-18T05:05:18.633Z,97640.58
2018-06-18T05:10:23.781Z,97636.33
2018-06-18T05:15:19.569Z,97635.12
2018-06-18T05:20:14.426Z,97637.99
2018-06-18T05:25:09.111Z,97646.75
2018-06-18T05:30:08.566Z,97653.05
2018-06-18T05:35:03.299Z,97658.34
2018-06-18T05:39:57.972Z,97665.48
2018-06-18T05:44:52.692Z,97666.91
2018-06-18T05:49:47.388Z,97664.23
2018-06-18T05:54:42.092Z,97667.95
2018-06-18T05:59:36.851Z,97664.69
2018-06-18T06:04:31.549Z,97663.98
2018-06-18T06:09:26.234Z,97666.67
2018-06-18T06:14:20.927Z,97666.78
2018-06-18T06:19:15.807Z,97661.02
2018-06-18T06:24:10.399Z,97672.73
2018-06-18T06:29:05.083Z,97678.70
2018-06-18T06:33:59.701Z,97683.13
2018-06-18T06:38:54.343Z,97680.50
2018-06-18T06:43:48.931Z,97681.05
2018-06-18T06:48:43.628Z,97679.09
2018-06-18T06:53:38.197Z,97689.56
2018-06-18T06:58:33.078Z,97692.97
2018-06-18T07:03:27.695Z,97689.98
2018-06-18T07:08:22.268Z,97682.16
2018-06-18T07:13:16.877Z,97681.58
2018-06-18T07:18:11.358Z,97676.06
2018-06-18T07:23:05.980Z,97673.66
2018-06-18T07:28:00.563Z,97676.63
2018-06-18T07:32:55.200Z,97671.16
2018-06-18T07:37:49.793Z,97673.97
2018-06-18T07:42:44.034Z,97674.41
2018-06-18T07:47:38.570Z,97674.25
2018-06-18T07:52:33.149Z,97675.06
2018-06-18T07:57:27.754Z,97669.09
2018-06-18T08:02:22.387Z,97675.43
2018-06-18T08:07:16.981Z,97677.85
2018-06-18T08:12:11.545Z,97668.34
2018-06-18T08:17:06.213Z,97679.34
2018-06-18T08:22:00.905Z,97671.56
2018-06-18T08:26:55.557Z,97677.85
2018-06-18T08:31:50.435Z,97670.91
2018-06-18T08:36:45.029Z,97676.55
2018-06-18T08:41:39.834Z,97672.41
2018-06-18T08:46:34.427Z,97675.89
2018-06-18T08:51:34.127Z,97677.78
2018-06-18T08:56:33.931Z,97679.58
2018-06-18T09:01:34.858Z,97689.17
2018-06-18T09:06:29.182Z,97684.72
2018-06-18T09:11:23.790Z,97674.83
2018-06-18T09:16:18.350Z,97682.98
2018-06-18T09:21:12.917Z,97677.67
2018-06-18T09:26:07.538Z,97668.70
2018-06-18T09:31:02.113Z,97666.98
2018-06-18T09:35:56.344Z,97669.27
2018-06-18T09:40:50.948Z,97678.38
2018-06-18T09:45:45.540Z,97674.80
2018-06-18T09:50:45.375Z,97678.88
2018-06-18T09:55:45.097Z,97678.78
2018-06-18T10:01:02.300Z,97672.82
2018-06-18T10:05:56.879Z,97673.97
2018-06-18T10:10:51.441Z,97671.02
2018-06-18T10:15:46.008Z,97670.19
2018-06-18T10:20:40.543Z,97669.50
2018-06-18T10:25:35.280Z,97677.16
2018-06-18T10:30:29.819Z,97671.58
2018-06-18T10:35:29.575Z,97664.77
2018-06-18T10:40:29.264Z,97658.86
2018-06-18T10:45:23.786Z,97664.27
2018-06-18T10:50:18.362Z,97660.09
2018-06-18T10:55:12.928Z,97661.79
2018-06-18T11:00:10.579Z,97653.42
2018-06-18T11:05:05.254Z,97654.73
2018-06-18T11:09:59.789Z,97658.86
2018-06-18T11:14:54.391Z,97660.93
2018-06-18T11:19:54.025Z,97650.45
2018-06-18T11:24:53.690Z,97650.60
2018-06-18T11:29:48.235Z,97643.02
2018-06-18T11:34:42.810Z,97642.02
2018-06-18T11:39:37.440Z,97631.23
2018-06-18T11:44:31.905Z,97629.13
2018-06-18T11:49:26.529Z,97628.15
2018-06-18T11:54:21.173Z,97623.75
2018-06-18T11:59:20.891Z,97632.98
2018-06-18T12:04:20.558Z,97628.77
2018-06-18T12:09:20.066Z,97629.69
2018-06-18T12:14:15.105Z,97623.55
2018-06-18T12:19:09.684Z,97618.27
2018-06-18T12:24:04.255Z,97621.30
2018-06-18T12:28:58.832Z,97620.17
2018-06-18T12:33:53.274Z,97620.44
2018-06-18T12:38:47.847Z,97617.19
2018-06-18T12:43:43.763Z,97608.90
2018-06-18T12:48:43.425Z,97610.16
2018-06-18T12:53:43.143Z,97606.49
2018-06-18T12:58:37.822Z,97605.95
2018-06-18T13:03:33.070Z,97603.19
2018-06-18T13:08:27.606Z,97602.79
2018-06-18T13:13:22.155Z,97600.11
2018-06-18T13:18:16.738Z,97605.10
2018-06-18T13:23:11.312Z,97592.95
2018-06-18T13:28:10.983Z,97598.61
2018-06-18T13:33:05.568Z,97593.13
2018-06-18T13:38:05.527Z,97592.56
2018-06-18T13:43:05.533Z,97591.38
2018-06-18T13:48:05.298Z,97574.73
2018-06-18T13:53:00.811Z,97576.47
2018-06-18T13:57:55.365Z,97575.53
2018-06-18T14:02:49.970Z,97574.09
2018-06-18T14:07:44.925Z,97569.58
2018-06-18T14:12:39.487Z,97568.63
2018-06-18T14:17:34.141Z,97557.50
2018-06-18T14:22:28.751Z,97559.19
2018-06-18T14:27:23.365Z,97562.87
2018-06-18T14:32:23.047Z,97556.95
2018-06-18T14:37:22.768Z,97551.48
2018-06-18T14:42:17.868Z,97551.77
2018-06-18T14:47:12.345Z,97551.72
2018-06-18T14:52:07.049Z,97547.05
2018-06-18T14:57:03.714Z,97549.12
2018-06-18T15:01:58.311Z,97552.82
2018-06-18T15:06:52.834Z,97550.98
2018-06-18T15:11:47.431Z,97545.66
2018-06-18T15:16:42.047Z,97545.16
2018-06-18T15:21:42.086Z,97546.59
2018-06-18T15:26:36.629Z,97552.00
2018-06-18T15:31:31.194Z,97542.61
2018-06-18T15:36:25.754Z,97540.63
2018-06-18T15:41:20.295Z,97543.31
2018-06-18T15:46:14.888Z,97545.14
2018-06-18T15:51:09.447Z,97542.66
2018-06-18T15:56:04.062Z,97541.85
2018-06-18T16:00:58.733Z,97545.50
2018-06-18T16:05:53.391Z,97540.75
2018-06-18T16:10:48.002Z,97542.33
2018-06-18T16:15:42.658Z,97539.08
2018-06-18T16:20:37.218Z,97541.97
2018-06-18T16:25:31.829Z,97539.34
2018-06-18T16:30:26.391Z,97536.53
2018-06-18T16:35:20.985Z,97535.03
2018-06-18T16:40:15.602Z,97541.34
2018-06-18T16:45:10.186Z,97535.83
2018-06-18T16:50:04.850Z,97533.01
2018-06-18T16:54:59.438Z,97527.64
2018-06-18T16:59:54.048Z,97529.89
2018-06-18T17:04:48.607Z,97525.78
2018-06-18T17:09:43.186Z,97528.92
2018-06-18T17:14:37.711Z,97527.42
2018-06-18T17:19:32.293Z,97527.83
2018-06-18T17:24:26.851Z,97532.61
2018-06-18T17:29:21.422Z,97526.52
2018-06-18T17:34:16.207Z,97528.87
2018-06-18T17:39:12.416Z,97532.94
2018-06-18T17:44:06.983Z,97541.79
2018-06-18T17:49:01.623Z,97544.62
2018-06-18T17:53:56.240Z,97546.71
2018-06-18T17:58:50.829Z,97544.27
2018-06-18T18:03:45.427Z,97551.00
2018-06-18T18:08:40.038Z,97552.84
2018-06-18T18:13:34.669Z,97552.85
2018-06-18T18:18:29.191Z,97550.75
2018-06-18T18:23:23.839Z,97550.48
2018-06-18T18:28:18.380Z,97558.80
2018-06-18T18:33:12.958Z,97559.28
2018-06-18T18:38:07.567Z,97563.58
2018-06-18T18:43:02.152Z,97566.16
2018-06-18T18:47:56.755Z,97566.88
2018-06-18T18:52:51.443Z,97576.49
2018-06-18T18:58:02.528Z,97569.53
2018-06-18T19:02:57.204Z,97572.75
2018-06-18T19:07:52.016Z,97575.28
2018-06-18T19:12:46.608Z,97577.96
2018-06-18T19:17:40.854Z,97587.47
2018-06-18T19:22:35.440Z,97579.45
2018-06-18T19:27:30.012Z,97591.77
2018-06-18T19:32:24.607Z,97594.73
2018-06-18T19:37:19.190Z,97604.91
2018-06-18T19:42:14.480Z,97604.91
2018-06-18T19:47:23.676Z,97611.19
2018-06-18T19:52:18.243Z,97621.31
2018-06-18T19:57:12.821Z,97624.13
2018-06-18T20:02:07.277Z,97635.30
2018-06-18T20:07:01.926Z,97644.67
2018-06-18T20:11:56.494Z,97648.53
2018-06-18T20:16:51.072Z,97649.08
2018-06-18T20:21:46.187Z,97664.68
2018-06-18T20:26:40.847Z,97666.87
2018-06-18T20:31:35.463Z,97676.22
2018-06-18T20:36:30.067Z,97679.09
2018-06-18T20:41:25.231Z,97684.62
2018-06-18T20:46:20.037Z,97691.31
2018-06-18T20:51:14.646Z,97698.03
2018-06-18T20:56:09.248Z,97704.77
2018-06-18T21:01:03.947Z,97700.63
2018-06-18T21:05:58.520Z,97706.08
2018-06-18T21:10:53.259Z,97710.43
2018-06-18T21:15:47.915Z,97709.27
2018-06-18T21:20:42.635Z,97717.87
2018-06-18T21:25:37.268Z,97721.02
2018-06-18T21:30:31.867Z,97727.02
2018-06-18T21:35:26.431Z,97723.84
2018-06-18T21:40:21.074Z,97736.48
2018-06-18T21:45:23.192Z,97740.65
2018-06-18T21:50:18.266Z,97737.30
2018-06-18T21:55:13.185Z,97741.19
2018-06-18T22:00:17.348Z,97745.47
2018-06-18T22:05:12.043Z,97751.27
2018-06-18T22:10:07.775Z,97753.42
2018-06-18T22:15:02.482Z,97745.45
2018-06-18T22:19:57.128Z,97749.50
2018-06-18T22:24:51.839Z,97751.33
2018-06-18T22:29:46.529Z,97755.09
2018-06-18T22:34:41.201Z,97755.19
2018-06-18T22:39:35.795Z,97751.19
2018-06-18T22:44:30.532Z,97746.52
2018-06-18T22:49:25.106Z,97753.19
2018-06-18T22:54:19.754Z,97756.63
2018-06-18T22:59:14.423Z,97753.88
2018-06-18T23:04:09.058Z,97753.77
2018-06-18T23:09:10.006Z,97758.39
2018-06-18T23:14:07.362Z,97754.69
2018-06-18T23:19:02.096Z,97760.44
2018-06-18T23:23:56.719Z,97764.49
2018-06-18T23:28:56.067Z,97762.53
2018-06-18T23:33:50.439Z,97772.09
2018-06-18T23:38:45.150Z,97771.66
2018-06-18T23:43:40.643Z,97777.27
2018-06-18T23:48:35.318Z,97781.45
2018-06-18T23:53:29.917Z,97775.13
2018-06-18T23:58:24.544Z,97778.28
